Main page
METAR-TAF:

METAR-TAF

Airports :

Hohenfels, Germany

latitude: 49-13N, longitude: 011-50E, elevation: 442 m

Current weather observation

The report was made 53 minutes ago, at 00:56 UTC
Calm wind
Temperature 7°C
Humidity 100%
Pressure 1021 hPa
Visibility 10 km or more
Few clouds at a height of 3100 ft
Overcast at a height of 9000 ft

METAR: ETIH 260056Z AUTO 00000KT 9999 FEW031 OVC090 07/07 A3016 RMK AO2 SLP217 T00690068 $

Time: 03:49 (01:49 UTC)


TAF: missing

Weather observations and forecasts of more than 4000 airports (METAR and TAF reports).

The available stations are represented by yellow and red dots on the map.

Hover mouse over dot to see the name of the station.

Then click to see weather observations and forecasts.

To change the map : click on the green buttons with a black cross to zoom in, on the green button with a dash to zoom out, or on the green arrows for adjacent maps.


METAR-TAF: